Time;durP1;ratioP1;P1;durP2;ratioP2;P2;SDS_P1;SDS_P2;PMS_P1;PMS_P2;Temp;Humidity;BMP_temperature;BMP_pressure;BME280_temperature;BME280_humidity;BME280_pressure;Samples;Min_cycle;Max_cycle;Signal;HPM_P1;HPM_P2
2023/10/08 00:00:49;;;;;;;10.30;4.97;;;;;;;16.49;60.59;100154.91;1474519;88;21604;-81
2023/10/08 00:03:29;;;;;;;9.07;4.80;;;;;;;16.45;60.48;100141.61;1481225;88;21457;-81
2023/10/08 00:05:51;;;;;;;10.63;4.40;;;;;;;16.42;60.54;100132.64;1471224;88;21427;-81
2023/10/08 00:08:18;;;;;;;10.90;4.92;;;;;;;16.40;60.60;100130.66;1481449;88;21405;-81
2023/10/08 00:10:45;;;;;;;8.03;4.77;;;;;;;16.36;60.72;100132.91;1474424;88;21331;-83
2023/10/08 00:13:12;;;;;;;9.60;4.43;;;;;;;16.31;60.85;100131.83;1474868;88;21515;-81
2023/10/08 00:15:58;;;;;;;14.67;5.47;;;;;;;16.26;61.16;100126.27;1466643;88;22558;-80
2023/10/08 00:18:24;;;;;;;10.23;5.23;;;;;;;16.20;61.14;100126.00;1473448;88;21604;-84
2023/10/08 00:23:25;;;;;;;11.37;5.23;;;;;;;16.11;61.53;100118.30;1479904;88;21553;-85
2023/10/08 00:25:54;;;;;;;14.77;4.70;;;;;;;16.08;61.68;100125.35;1472583;88;21538;-85
2023/10/08 00:28:22;;;;;;;15.43;5.57;;;;;;;16.03;62.00;100113.11;1473226;88;21479;-85
2023/10/08 00:30:49;;;;;;;11.83;4.53;;;;;;;15.98;62.02;100113.16;1480890;88;21449;-86
2023/10/08 00:33:16;;;;;;;9.90;4.83;;;;;;;15.95;62.11;100106.05;1474792;88;21398;-85
2023/10/08 00:35:43;;;;;;;12.00;5.20;;;;;;;15.90;62.52;100100.45;1477769;88;21427;-85
2023/10/08 00:38:20;;;;;;;9.20;4.67;;;;;;;15.86;62.57;100101.34;1475973;88;22486;-86
2023/10/08 00:40:45;;;;;;;9.17;4.97;;;;;;;15.84;62.56;100099.88;1474124;88;21538;-86
2023/10/08 00:43:35;;;;;;;11.53;4.83;;;;;;;15.78;62.73;100094.78;1449029;88;22303;-85
2023/10/08 00:46:17;;;;;;;10.90;4.63;;;;;;;15.73;63.29;100094.01;1476736;88;21511;-86
2023/10/08 00:48:37;;;;;;;8.43;5.05;;;;;;;15.70;63.15;100098.39;1478273;88;21600;-85
2023/10/08 00:54:07;;;;;;;9.37;4.87;;;;;;;15.63;63.27;100107.33;1475878;88;21353;-84
2023/10/08 00:59:21;;;;;;;11.60;4.90;;;;;;;15.53;63.83;100109.77;1476262;88;21420;-84
2023/10/08 01:02:00;;;;;;;12.30;4.80;;;;;;;15.50;63.83;100111.47;1472169;88;21390;-85
2023/10/08 01:04:26;;;;;;;11.07;5.03;;;;;;;15.48;64.07;100102.85;1464466;88;21597;-85
2023/10/08 01:07:01;;;;;;;10.27;4.70;;;;;;;15.49;64.17;100093.01;1477837;88;21532;-84
2023/10/08 01:09:31;;;;;;;9.33;5.33;;;;;;;15.48;64.32;100089.52;1467533;88;21686;-85
2023/10/08 01:12:33;;;;;;;17.47;5.50;;;;;;;15.48;64.39;100086.03;1475829;88;21420;-85
2023/10/08 01:15:16;;;;;;;8.70;5.07;;;;;;;15.49;64.67;100081.00;1468844;88;21626;-85
2023/10/08 01:17:31;;;;;;;;;;;;;;;15.49;64.98;100075.16;1466724;88;22692;-85
2023/10/08 01:20:08;;;;;;;7.80;4.57;;;;;;;15.50;65.29;100065.31;1477186;88;20395;-85
2023/10/08 01:22:28;;;;;;;;;;;;;;;15.49;65.08;100061.00;1472562;88;21597;-84
2023/10/08 01:24:53;;;;;;;10.07;4.43;;;;;;;15.49;65.82;100054.34;1477506;88;20389;-84
2023/10/08 01:27:24;;;;;;;11.27;5.33;;;;;;;15.49;65.63;100053.83;1472834;88;21419;-86
2023/10/08 01:29:52;;;;;;;17.00;5.53;;;;;;;15.49;65.58;100040.48;1474694;88;22300;-85
2023/10/08 01:32:22;;;;;;;12.27;4.60;;;;;;;15.49;65.51;100037.82;1472053;88;21531;-84
2023/10/08 01:34:49;;;;;;;7.35;4.60;;;;;;;15.47;65.32;100043.84;1476020;88;21287;-85
2023/10/08 01:37:17;;;;;;;12.53;5.23;;;;;;;15.45;65.37;100041.89;1472970;88;22418;-85
2023/10/08 01:39:49;;;;;;;7.53;5.10;;;;;;;15.45;65.10;100041.04;1483623;88;21367;-85
2023/10/08 01:42:20;;;;;;;7.70;4.40;;;;;;;15.45;65.05;100035.70;1462419;88;22225;-86
2023/10/08 01:44:49;;;;;;;11.10;4.57;;;;;;;15.45;64.96;100040.56;1474034;88;22277;-86
2023/10/08 01:47:16;;;;;;;10.20;5.80;;;;;;;15.47;64.72;100024.36;1472929;88;21404;-85
2023/10/08 01:49:45;;;;;;;10.33;4.30;;;;;;;15.50;64.31;100035.46;1470175;88;21382;-86
2023/10/08 01:52:24;;;;;;;8.40;4.53;;;;;;;15.53;63.92;100023.59;1473285;88;21679;-84
2023/10/08 01:54:48;;;;;;;11.13;4.73;;;;;;;15.56;63.63;100017.88;1472483;88;21405;-86
2023/10/08 01:57:15;;;;;;;10.33;4.43;;;;;;;15.58;63.39;100009.19;1471387;88;21493;-86
2023/10/08 01:59:41;;;;;;;8.33;4.30;;;;;;;15.61;63.16;100005.31;1451892;88;21435;-86
2023/10/08 02:02:07;;;;;;;9.77;4.53;;;;;;;15.64;63.01;99992.41;1468156;88;22438;-86
2023/10/08 02:04:37;;;;;;;11.37;5.63;;;;;;;15.66;62.96;99999.73;1475564;88;21508;-84
2023/10/08 02:07:04;;;;;;;10.07;4.97;;;;;;;15.67;62.73;100000.03;1472874;88;21561;-86
2023/10/08 02:09:33;;;;;;;19.10;4.97;;;;;;;15.68;62.67;99994.22;1478372;88;21419;-84
2023/10/08 02:11:59;;;;;;;10.37;5.77;;;;;;;15.68;62.62;99997.73;1473059;88;21317;-87
2023/10/08 02:14:25;;;;;;;13.93;4.40;;;;;;;15.67;62.56;99996.03;1478747;88;22168;-86
2023/10/08 02:16:56;;;;;;;7.30;4.00;;;;;;;15.67;62.53;99996.55;1434036;88;22515;-83
2023/10/08 02:19:26;;;;;;;9.00;5.37;;;;;;;15.65;62.53;99999.91;1471814;88;21398;-84
2023/10/08 02:21:47;;;;;;;7.57;4.73;;;;;;;15.65;62.58;100004.76;1470704;88;21479;-85
2023/10/08 02:24:14;;;;;;;11.70;4.03;;;;;;;15.62;62.62;100004.29;1471814;88;22233;-87
2023/10/08 02:26:40;;;;;;;10.47;5.00;;;;;;;15.58;62.66;99999.34;1477134;88;21582;-82
2023/10/08 02:29:10;;;;;;;9.33;4.37;;;;;;;15.56;62.75;100003.20;1476967;88;21397;-81
2023/10/08 02:31:34;;;;;;;9.63;4.60;;;;;;;15.52;62.90;100002.77;1470760;88;21582;-82
2023/10/08 02:34:01;;;;;;;10.87;4.53;;;;;;;15.51;63.03;99996.31;1475030;88;21512;-81
2023/10/08 02:36:28;;;;;;;9.37;4.03;;;;;;;15.48;63.12;99998.84;1475892;88;21420;-81
2023/10/08 02:38:54;;;;;;;12.37;4.73;;;;;;;15.49;63.34;99999.66;1474627;88;21383;-82
2023/10/08 02:41:24;;;;;;;10.00;4.33;;;;;;;15.49;63.38;99999.66;1474138;88;21324;-82
2023/10/08 02:43:49;;;;;;;11.50;4.47;;;;;;;15.49;63.43;99997.00;1472214;88;21442;-86
2023/10/08 02:46:15;;;;;;;12.43;4.53;;;;;;;15.49;63.57;99998.33;1473303;88;21479;-87
2023/10/08 02:48:42;;;;;;;8.50;4.53;;;;;;;15.49;63.58;99996.48;1472426;88;21864;-84
2023/10/08 02:51:14;;;;;;;12.87;4.70;;;;;;;15.50;63.71;99999.97;1471220;88;21372;-86
2023/10/08 02:53:36;;;;;;;11.13;4.10;;;;;;;15.50;63.80;99993.30;1469652;88;21463;-86
2023/10/08 02:56:12;;;;;;;6.97;3.70;;;;;;;15.49;63.83;99986.33;1475591;88;21412;-86
2023/10/08 02:58:30;;;;;;;9.13;4.40;;;;;;;15.48;63.89;99989.51;1470282;88;21648;-86
2023/10/08 03:00:56;;;;;;;12.23;3.97;;;;;;;15.48;64.01;99984.69;1470715;88;22916;-86
2023/10/08 03:03:24;;;;;;;12.70;5.07;;;;;;;15.48;64.08;99975.36;1467815;88;21433;-86
2023/10/08 03:05:56;;;;;;;11.43;4.53;;;;;;;15.47;64.24;99977.17;1473083;88;21332;-87
2023/10/08 03:08:21;;;;;;;10.90;4.10;;;;;;;15.46;64.24;99974.72;1472757;88;22336;-85
2023/10/08 03:10:49;;;;;;;8.60;4.20;;;;;;;15.46;64.26;99970.71;1474902;88;21391;-83
2023/10/08 03:13:17;;;;;;;11.33;4.83;;;;;;;15.45;64.37;99972.56;1472986;88;22455;-82
2023/10/08 03:15:57;;;;;;;12.10;4.30;;;;;;;15.45;64.53;99971.23;1467273;88;21471;-85
2023/10/08 03:18:14;;;;;;;9.27;4.30;;;;;;;15.43;64.71;99973.77;1469903;88;21545;-83
2023/10/08 03:20:44;;;;;;;12.60;3.90;;;;;;;15.41;64.84;99975.78;1473272;88;22374;-86
2023/10/08 03:23:22;;;;;;;10.87;4.40;;;;;;;15.39;65.02;99971.14;1476797;88;21435;-86
2023/10/08 03:25:45;;;;;;;11.78;4.97;;;;;;;15.38;65.20;99966.83;1478300;88;21449;-86
2023/10/08 03:28:13;;;;;;;11.43;4.23;;;;;;;15.34;65.66;99957.06;1470251;88;21604;-85
2023/10/08 03:33:10;;;;;;;11.00;4.33;;;;;;;15.31;65.78;99962.27;1432792;88;22301;-86
2023/10/08 03:35:37;;;;;;;8.20;3.80;;;;;;;15.29;66.00;99964.28;1468130;88;21605;-86
2023/10/08 03:38:18;;;;;;;7.97;3.87;;;;;;;15.28;66.26;99963.16;1470273;88;21626;-85
2023/10/08 03:40:42;;;;;;;8.60;4.37;;;;;;;15.24;66.45;99964.02;1470098;88;21486;-84
2023/10/08 03:42:59;;;;;;;12.93;4.60;;;;;;;15.24;66.61;99965.35;1469733;88;21471;-86
2023/10/08 03:48:15;;;;;;;11.83;4.70;;;;;;;15.23;67.39;99966.38;1473696;88;21346;-86
2023/10/08 03:50:43;;;;;;;12.77;4.87;;;;;;;15.24;67.92;99969.35;1471965;88;21507;-86
2023/10/08 03:53:13;;;;;;;10.20;4.53;;;;;;;15.25;68.30;99964.36;1467161;88;21361;-86
2023/10/08 03:55:45;;;;;;;11.38;4.17;;;;;;;15.27;68.13;99960.16;1449926;88;21449;-86
2023/10/08 03:58:27;;;;;;;13.67;3.70;;;;;;;15.29;68.53;99956.28;1470435;88;21412;-86
2023/10/08 04:00:45;;;;;;;7.50;4.23;;;;;;;15.32;68.71;99951.91;1473848;88;21597;-86
2023/10/08 04:03:11;;;;;;;8.73;3.50;;;;;;;15.34;68.28;99948.55;1467769;88;22278;-82
2023/10/08 04:08:42;;;;;;;15.20;6.73;;;;;;;15.42;68.22;99938.76;1433658;88;21530;-81
2023/10/08 04:11:08;;;;;;;9.03;4.10;;;;;;;15.47;68.14;99931.02;1474971;88;21530;-81
2023/10/08 04:13:44;;;;;;;7.47;3.90;;;;;;;15.51;68.04;99933.64;1465868;88;22307;-83
2023/10/08 04:16:04;;;;;;;7.83;3.83;;;;;;;15.54;67.83;99922.58;1473337;88;21449;-81
2023/10/08 04:18:30;;;;;;;9.30;4.27;;;;;;;15.56;67.67;99913.38;1472816;88;21301;-82
2023/10/08 04:21:12;;;;;;;11.50;5.07;;;;;;;15.60;67.51;99908.98;1468952;88;21391;-83
2023/10/08 04:23:38;;;;;;;8.10;4.03;;;;;;;15.64;67.42;99896.38;1446224;88;22648;-81
2023/10/08 04:26:02;;;;;;;12.53;4.20;;;;;;;15.65;67.26;99891.39;1470355;88;21508;-81
2023/10/08 04:28:34;;;;;;;10.17;4.33;;;;;;;15.66;67.20;99893.03;1476467;88;22329;-81
2023/10/08 04:31:14;;;;;;;9.80;4.07;;;;;;;15.66;67.11;99899.70;1470640;88;22256;-82
2023/10/08 04:33:24;;;;;;;8.03;4.47;;;;;;;15.66;67.15;99896.20;1467795;88;21492;-80
2023/10/08 04:35:55;;;;;;;12.07;4.33;;;;;;;15.66;67.20;99913.55;1476155;88;22248;-81
2023/10/08 04:38:39;;;;;;;7.80;4.17;;;;;;;15.67;67.21;99912.52;1472292;88;22386;-79
2023/10/08 04:41:01;;;;;;;12.40;5.30;;;;;;;15.66;67.11;99911.70;1466654;88;21427;-81
2023/10/08 04:43:27;;;;;;;6.17;3.13;;;;;;;15.69;67.11;99911.34;1463188;88;22394;-82
2023/10/08 04:46:04;;;;;;;10.38;4.08;;;;;;;15.70;67.04;99914.31;1471135;88;21397;-84
2023/10/08 04:48:24;;;;;;;12.27;4.13;;;;;;;15.71;66.91;99911.16;1471909;88;21605;-85
2023/10/08 04:50:58;;;;;;;13.50;4.93;;;;;;;15.72;66.88;99912.28;1476714;88;21412;-85
2023/10/08 04:53:36;;;;;;;13.20;4.33;;;;;;;15.72;66.83;99919.47;1473771;88;21383;-85
2023/10/08 04:56:13;;;;;;;9.10;3.77;;;;;;;15.72;66.76;99923.47;1470373;88;22566;-84
2023/10/08 04:58:40;;;;;;;8.90;4.73;;;;;;;15.71;66.68;99918.66;1467447;88;21529;-83
2023/10/08 05:01:20;;;;;;;23.17;5.17;;;;;;;15.71;66.62;99917.31;1476186;88;21494;-81
2023/10/08 05:17:58;;;;;;;13.63;4.33;;;;;;;15.70;66.62;99920.98;1470962;88;21597;-83
2023/10/08 05:22:18;;;;;;;8.00;4.03;;;;;;;15.69;66.73;99923.34;1477867;88;22501;-83
2023/10/08 05:24:51;;;;;;;9.63;3.70;;;;;;;15.70;66.83;99925.50;1475002;88;21607;-83
2023/10/08 05:27:37;;;;;;;13.57;4.37;;;;;;;15.69;66.95;99911.34;1468282;88;21671;-82
2023/10/08 05:30:11;;;;;;;8.63;3.50;;;;;;;15.70;66.97;99912.98;1478881;88;21376;-83
2023/10/08 05:32:38;;;;;;;11.87;4.30;;;;;;;15.70;67.00;99918.31;1464238;88;21627;-83
2023/10/08 05:35:31;;;;;;;8.07;4.40;;;;;;;15.70;67.09;99923.65;1466751;88;21578;-82
2023/10/08 05:37:37;;;;;;;10.60;4.13;;;;;;;15.72;67.34;99924.29;1470350;88;22308;-80
2023/10/08 05:40:13;;;;;;;7.60;3.80;;;;;;;15.72;67.34;99914.95;1474269;88;21367;-79
2023/10/08 05:45:14;;;;;;;10.00;5.40;;;;;;;15.76;67.39;99901.53;1472609;88;21287;-80
2023/10/08 05:55:25;;;;;;;17.33;4.73;;;;;;;15.87;67.59;99902.84;1470028;88;21597;-83
2023/10/08 05:58:13;;;;;;;9.87;4.73;;;;;;;15.92;67.53;99911.09;1470383;88;21589;-84
2023/10/08 06:11:56;;;;;;;8.43;3.80;;;;;;;16.18;67.25;99942.48;1477378;88;21515;-85
2023/10/08 06:14:13;;;;;;;12.30;4.33;;;;;;;16.23;67.28;99950.73;1472014;88;21764;-83
2023/10/08 06:16:46;;;;;;;16.23;6.67;;;;;;;16.29;67.20;99965.14;1469298;88;22567;-83
2023/10/08 06:19:14;;;;;;;15.50;4.40;;;;;;;16.36;70.26;99970.52;1473188;88;22248;-82
2023/10/08 06:21:42;;;;;;;20.77;3.97;;;;;;;16.44;69.14;99963.69;1468773;88;21389;-80
2023/10/08 06:24:10;;;;;;;10.50;4.30;;;;;;;16.49;68.66;99946.56;1477469;88;21764;-83
2023/10/08 06:26:43;;;;;;;9.43;3.67;;;;;;;16.54;68.44;99944.09;1468994;88;21562;-87
2023/10/08 06:29:26;;;;;;;14.60;4.83;;;;;;;16.59;69.81;99941.66;1468536;88;22398;-82
2023/10/08 06:31:53;;;;;;;12.33;3.87;;;;;;;16.65;69.13;99948.88;1501400;88;21560;-82
2023/10/08 06:34:17;;;;;;;14.53;4.80;;;;;;;16.73;68.45;99959.09;1472243;88;23030;-85
2023/10/08 06:36:43;;;;;;;7.77;3.73;;;;;;;16.76;68.01;99948.86;1472516;88;21390;-84
2023/10/08 06:39:12;;;;;;;14.10;4.57;;;;;;;16.82;68.17;99947.24;1470268;88;21375;-83
2023/10/08 06:41:38;;;;;;;16.03;4.40;;;;;;;16.88;68.10;99961.14;1470710;88;21581;-83
2023/10/08 06:44:13;;;;;;;11.33;4.60;;;;;;;16.96;68.20;99966.31;1467634;88;22294;-83
2023/10/08 06:46:35;;;;;;;10.10;4.07;;;;;;;17.01;67.94;99955.03;1397890;88;21435;-83
2023/10/08 06:49:05;;;;;;;14.90;5.20;;;;;;;17.03;67.86;99956.97;1397357;88;21273;-87
2023/10/08 06:51:32;;;;;;;15.23;4.90;;;;;;;17.05;68.16;99971.78;1402637;88;22368;-81
2023/10/08 06:54:02;;;;;;;8.50;4.60;;;;;;;17.07;68.03;99971.08;1395947;88;21251;-81
2023/10/08 06:56:26;;;;;;;19.33;4.67;;;;;;;17.06;68.07;99980.14;1394579;88;21354;-81
2023/10/08 06:58:53;;;;;;;16.13;4.10;;;;;;;17.08;68.29;99982.08;1396799;88;21243;-82
2023/10/08 07:01:24;;;;;;;13.80;3.93;;;;;;;17.16;68.50;99985.09;1446837;88;21390;-82
2023/10/08 07:03:51;;;;;;;23.27;5.13;;;;;;;17.27;68.79;99995.72;1470387;88;21627;-82
2023/10/08 07:06:31;;;;;;;15.83;5.00;;;;;;;17.49;68.65;100003.91;1474327;88;21486;-82
2023/10/08 07:09:00;;;;;;;9.90;4.87;;;;;;;17.73;67.94;100001.67;1469353;88;21412;-82
2023/10/08 07:11:27;;;;;;;15.17;4.80;;;;;;;17.85;67.24;99992.02;1374628;90;21332;-83
2023/10/08 07:13:53;;;;;;;11.97;4.77;;;;;;;17.99;67.27;99992.33;1402146;88;21294;-81
2023/10/08 07:16:21;;;;;;;9.13;4.07;;;;;;;18.12;66.86;99989.33;1427078;88;21418;-82
2023/10/08 07:18:57;;;;;;;12.47;4.60;;;;;;;18.28;66.25;99983.55;1464574;88;21353;-82
2023/10/08 07:24:15;;;;;;;12.30;4.77;;;;;;;18.60;64.70;99983.69;1471855;88;21805;-83
2023/10/08 07:26:46;;;;;;;10.43;4.35;;;;;;;18.78;64.60;99981.16;1472833;88;21456;-81
2023/10/08 07:29:10;;;;;;;9.88;5.25;;;;;;;18.93;63.67;99989.79;1471848;88;21412;-80
2023/10/08 07:31:41;;;;;;;;;;;;;;;19.03;61.77;100036.77;1470424;88;21538;-83
2023/10/08 07:34:18;;;;;;;28.67;15.35;;;;;;;18.93;61.45;100047.44;1471661;88;20300;-82
2023/10/08 07:36:49;;;;;;;9.65;4.05;;;;;;;18.79;62.17;100063.26;1469675;88;21479;-81
2023/10/08 07:41:49;;;;;;;33.42;20.27;;;;;;;18.54;63.49;100082.34;1556769;88;21258;-83
2023/10/08 07:44:16;;;;;;;25.43;5.15;;;;;;;18.31;64.64;100102.34;1395763;88;21266;-77
2023/10/08 07:46:42;;;;;;;15.55;5.08;;;;;;;18.04;65.10;100121.59;1402757;88;21353;-81
2023/10/08 07:49:14;;;;;;;11.48;4.37;;;;;;;17.95;66.60;100140.19;1396177;88;21398;-84
2023/10/08 07:51:37;;;;;;;13.30;3.17;;;;;;;17.50;74.50;100146.00;1376769;90;21405;-84
2023/10/08 07:54:09;;;;;;;9.47;2.43;;;;;;;16.97;78.04;100160.41;1396662;88;21368;-81
2023/10/08 07:56:31;;;;;;;7.80;1.90;;;;;;;16.52;79.14;100165.72;1457751;88;22485;-81
2023/10/08 07:58:57;;;;;;;15.97;2.40;;;;;;;16.29;81.34;100170.75;1396856;88;21265;-80
2023/10/08 08:01:27;;;;;;;6.50;1.03;;;;;;;15.82;82.98;100196.11;1397200;88;21405;-80
2023/10/08 08:03:53;;;;;;;3.10;0.80;;;;;;;15.56;83.38;100209.92;1393248;88;21339;-80
2023/10/08 08:06:19;;;;;;;2.60;0.70;;;;;;;15.37;83.71;100221.99;1402949;88;21302;-80
2023/10/08 08:08:45;;;;;;;3.53;1.20;;;;;;;15.21;84.82;100227.48;1402589;88;21294;-79
2023/10/08 08:11:12;;;;;;;4.17;0.50;;;;;;;15.06;87.37;100240.80;1556738;88;21296;-78
2023/10/08 08:13:43;;;;;;;1.73;0.60;;;;;;;14.73;90.36;100250.42;1396659;88;21372;-78
2023/10/08 08:16:18;;;;;;;8.23;0.80;;;;;;;14.59;93.04;100252.53;1373259;91;21339;-79
2023/10/08 08:18:54;;;;;;;2.73;0.50;;;;;;;14.59;93.73;100261.34;1556740;88;22013;-79
2023/10/08 08:21:23;;;;;;;7.73;1.03;;;;;;;14.51;93.73;100274.68;1550915;88;21369;-77
2023/10/08 08:23:49;;;;;;;1.10;0.60;;;;;;;14.38;93.24;100275.25;1554487;88;22205;-79
2023/10/08 08:26:28;;;;;;;2.93;0.83;;;;;;;14.21;92.93;100269.22;1395976;88;21399;-80
2023/10/08 08:28:59;;;;;;;12.00;0.60;;;;;;;14.15;91.21;100277.05;1556738;88;21178;-80
2023/10/08 08:31:26;;;;;;;6.00;1.30;;;;;;;13.96;91.05;100288.46;1550592;88;21257;-78
2023/10/08 08:33:56;;;;;;;6.77;0.47;;;;;;;13.82;91.42;100287.85;1395628;88;21265;-79
2023/10/08 08:36:23;;;;;;;5.10;0.47;;;;;;;13.66;93.05;100298.53;1472771;88;21331;-80
2023/10/08 08:38:50;;;;;;;7.20;1.33;;;;;;;13.57;94.80;100304.88;1395233;88;21415;-83
2023/10/08 08:41:20;;;;;;;6.00;0.50;;;;;;;13.54;96.71;100293.58;1395399;88;21273;-81
2023/10/08 08:43:56;;;;;;;6.20;0.57;;;;;;;13.36;96.88;100298.78;1414993;88;21472;-80
2023/10/08 08:46:19;;;;;;;1.17;0.60;;;;;;;13.23;99.92;100289.95;1471182;88;21427;-80
2023/10/08 08:48:46;;;;;;;7.30;0.67;;;;;;;13.21;100.00;100307.41;1476244;88;21404;-80
2023/10/08 08:51:13;;;;;;;2.80;0.40;;;;;;;13.20;100.00;100316.86;1472777;88;22765;-80
2023/10/08 08:53:41;;;;;;;8.17;0.90;;;;;;;13.13;100.00;100323.85;1473787;88;21345;-81
2023/10/08 08:56:09;;;;;;;3.50;0.40;;;;;;;13.08;100.00;100324.34;1476961;88;22352;-80
2023/10/08 08:58:37;;;;;;;3.70;0.70;;;;;;;12.98;100.00;100327.68;1552387;88;21413;-80
2023/10/08 09:01:09;;;;;;;5.20;0.50;;;;;;;12.96;100.00;100334.47;1394307;88;22035;-79
2023/10/08 09:03:37;;;;;;;18.03;2.00;;;;;;;12.97;100.00;100336.63;1556604;88;21584;-79
2023/10/08 09:06:04;;;;;;;3.80;0.40;;;;;;;12.96;100.00;100336.30;1441259;88;21391;-78
2023/10/08 09:08:42;;;;;;;2.87;0.60;;;;;;;12.75;100.00;100340.27;1395585;88;21398;-78
2023/10/08 09:11:08;;;;;;;1.10;0.63;;;;;;;12.63;100.00;100343.73;1556590;88;21437;-80
2023/10/08 09:13:35;;;;;;;1.17;0.63;;;;;;;12.62;100.00;100345.21;1531754;88;21287;-79
2023/10/08 09:16:08;;;;;;;3.60;0.70;;;;;;;12.60;100.00;100367.10;1394699;88;21286;-79
2023/10/08 09:18:35;;;;;;;1.70;1.10;;;;;;;12.52;98.68;100372.41;1402594;91;21450;-78
2023/10/08 09:21:15;;;;;;;3.93;1.03;;;;;;;12.48;98.63;100366.57;1395911;88;21461;-78
2023/10/08 09:23:43;;;;;;;1.45;0.60;;;;;;;12.42;97.80;100376.01;1556843;88;21161;-80
2023/10/08 09:26:13;;;;;;;2.23;0.70;;;;;;;12.41;98.46;100390.78;1394610;88;22144;-80
2023/10/08 09:28:39;;;;;;;5.80;0.60;;;;;;;12.26;98.40;100396.37;1399032;88;21280;-79
2023/10/08 09:31:06;;;;;;;3.03;0.70;;;;;;;12.12;99.70;100401.77;1396772;88;21420;-80
2023/10/08 09:33:33;;;;;;;1.10;0.70;;;;;;;12.13;100.00;100396.80;1395322;88;22210;-77
2023/10/08 09:36:02;;;;;;;11.80;0.90;;;;;;;11.96;100.00;100413.94;1396418;88;21323;-79
2023/10/08 09:38:30;;;;;;;2.17;1.03;;;;;;;11.88;100.00;100423.67;1549311;88;21324;-80
2023/10/08 09:40:56;;;;;;;3.13;1.03;;;;;;;11.74;100.00;100431.19;1375720;90;21324;-77
2023/10/08 09:43:24;;;;;;;1.10;0.80;;;;;;;11.64;100.00;100426.96;1395565;88;21288;-77
2023/10/08 09:46:11;;;;;;;2.90;1.00;;;;;;;11.40;100.00;100436.39;1395964;88;21265;-79
2023/10/08 09:48:40;;;;;;;3.70;1.10;;;;;;;11.28;100.00;100438.44;1420640;88;21346;-82
2023/10/08 09:51:10;;;;;;;0.95;0.50;;;;;;;11.24;100.00;100445.50;1392768;88;21264;-81
2023/10/08 09:54:10;;;;;;;2.60;1.20;;;;;;;11.18;100.00;100452.23;1393007;88;21399;-81
2023/10/08 09:56:39;;;;;;;1.67;0.73;;;;;;;11.12;100.00;100448.05;1393931;92;21500;-77
2023/10/08 09:59:07;;;;;;;1.00;0.90;;;;;;;11.04;100.00;100462.03;1399394;88;21258;-81
2023/10/08 10:01:37;;;;;;;1.80;0.90;;;;;;;10.95;100.00;100466.41;1398189;88;21309;-82
2023/10/08 10:04:10;;;;;;;3.43;0.70;;;;;;;11.00;100.00;100481.36;1533986;88;21185;-81
2023/10/08 10:06:37;;;;;;;1.07;0.60;;;;;;;10.99;100.00;100470.91;1398916;88;21404;-79
2023/10/08 10:09:15;;;;;;;1.50;1.00;;;;;;;10.90;100.00;100462.04;1550638;88;21346;-79
2023/10/08 10:11:36;;;;;;;1.63;1.00;;;;;;;10.89;100.00;100448.47;1397555;88;21302;-81
2023/10/08 10:14:06;;;;;;;1.70;1.17;;;;;;;10.92;100.00;100446.84;1396718;88;21272;-83
2023/10/08 10:16:32;;;;;;;1.80;1.03;;;;;;;10.98;100.00;100433.00;1468614;88;21518;-79
2023/10/08 10:19:00;;;;;;;3.60;0.70;;;;;;;10.96;100.00;100450.87;1396129;88;21420;-79
2023/10/08 10:21:35;;;;;;;6.60;1.50;;;;;;;10.97;100.00;100447.73;1400899;88;22137;-82
2023/10/08 10:24:05;;;;;;;2.83;1.50;;;;;;;11.07;100.00;100456.42;1556776;88;21206;-81
2023/10/08 10:26:33;;;;;;;4.83;1.00;;;;;;;11.12;100.00;100468.73;1555861;88;21338;-80
2023/10/08 10:29:19;;;;;;;2.50;1.30;;;;;;;11.10;100.00;100483.94;1398328;88;21360;-78
2023/10/08 10:31:53;;;;;;;2.20;1.03;;;;;;;11.11;100.00;100495.39;1556757;88;22173;-80
2023/10/08 10:34:27;;;;;;;2.00;1.00;;;;;;;11.11;100.00;100502.02;1556766;88;21243;-80
2023/10/08 10:36:55;;;;;;;2.80;0.80;;;;;;;11.12;100.00;100496.55;1407432;88;22203;-82
2023/10/08 10:39:26;;;;;;;1.70;0.70;;;;;;;11.09;100.00;100486.26;1470477;88;21397;-81
2023/10/08 10:42:20;;;;;;;2.57;0.90;;;;;;;11.16;100.00;100495.75;1451424;88;21383;-80
2023/10/08 10:44:38;;;;;;;3.08;1.10;;;;;;;11.21;100.00;100489.52;1520619;88;21361;-80
2023/10/08 10:52:44;;;;;;;3.60;0.97;;;;;;;11.28;100.00;100503.35;1395359;92;22348;-81
2023/10/08 10:55:31;;;;;;;2.57;0.90;;;;;;;11.41;100.00;100516.72;1328986;93;21327;-82
2023/10/08 10:57:35;;;;;;;1.27;0.83;;;;;;;11.46;100.00;100503.84;1393342;93;21919;-80
2023/10/08 11:00:27;;;;;;;4.67;1.40;;;;;;;11.48;100.00;100503.22;1399587;93;21581;-80
2023/10/08 11:02:42;;;;;;;3.30;0.80;;;;;;;11.54;100.00;100498.63;1378934;93;21665;-81
2023/10/08 11:05:19;;;;;;;1.70;0.93;;;;;;;11.61;100.00;100496.19;1395303;93;21760;-81
2023/10/08 11:07:40;;;;;;;1.53;0.93;;;;;;;11.71;100.00;100487.17;1395272;93;21596;-82
2023/10/08 11:10:10;;;;;;;3.23;0.97;;;;;;;11.86;100.00;100487.98;1399983;93;21651;-82
2023/10/08 11:12:46;;;;;;;1.50;0.70;;;;;;;11.98;100.00;100486.73;1390896;93;21686;-79
2023/10/08 11:15:06;;;;;;;3.10;0.97;;;;;;;12.10;100.00;100489.47;1381670;93;21697;-81
2023/10/08 11:17:33;;;;;;;2.13;0.93;;;;;;;12.25;100.00;100499.50;1380824;93;22414;-80
2023/10/08 11:19:59;;;;;;;2.43;1.50;;;;;;;12.46;100.00;100497.32;1400115;93;21505;-82
2023/10/08 11:22:44;;;;;;;2.37;1.20;;;;;;;12.61;100.00;100500.20;1398507;93;21423;-84
2023/10/08 11:25:30;;;;;;;1.30;1.00;;;;;;;12.77;100.00;100501.58;1417882;88;21405;-79
2023/10/08 11:27:59;;;;;;;1.63;0.77;;;;;;;12.92;100.00;100512.45;1466910;88;22388;-82
2023/10/08 11:30:20;;;;;;;1.80;1.23;;;;;;;12.94;100.00;100512.28;1475896;88;22449;-81
2023/10/08 11:32:48;;;;;;;2.53;0.90;;;;;;;13.10;100.00;100507.85;1472828;88;21840;-82
2023/10/08 11:35:18;;;;;;;1.37;0.70;;;;;;;13.26;100.00;100514.22;1472149;88;22233;-82
2023/10/08 11:37:51;;;;;;;2.17;0.78;;;;;;;13.52;100.00;100510.11;1473175;88;21405;-81
2023/10/08 11:40:48;;;;;;;1.13;0.80;;;;;;;13.52;100.00;100510.11;1465004;88;22490;-79
2023/10/08 11:42:59;;;;;;;2.00;1.00;;;;;;;13.54;100.00;100505.47;1473651;88;21412;-79
2023/10/08 11:45:26;;;;;;;3.30;1.30;;;;;;;13.77;100.00;100509.13;1475514;88;21324;-82
2023/10/08 11:47:56;;;;;;;6.40;1.00;;;;;;;14.23;100.00;100496.61;1476353;88;21419;-80
2023/10/08 11:50:31;;;;;;;4.67;1.52;;;;;;;14.70;100.00;100491.83;1469814;88;21575;-82
2023/10/08 11:53:05;;;;;;;5.43;1.70;;;;;;;15.20;100.00;100489.26;1470692;88;21509;-83
2023/10/08 11:55:38;;;;;;;1.70;0.90;;;;;;;15.48;100.00;100498.09;1475224;88;22374;-80
2023/10/08 11:58:12;;;;;;;1.43;0.90;;;;;;;15.57;100.00;100495.67;1466668;88;21492;-81
2023/10/08 12:00:45;;;;;;;2.97;1.20;;;;;;;15.59;100.00;100498.98;1470413;88;21524;-82
2023/10/08 12:03:17;;;;;;;2.90;1.40;;;;;;;16.12;100.00;100497.22;1472967;88;21559;-82
2023/10/08 12:05:47;;;;;;;1.72;1.17;;;;;;;16.62;100.00;100488.98;1475473;88;22277;-82
2023/10/08 12:08:11;;;;;;;1.87;1.27;;;;;;;16.73;100.00;100497.55;1468165;88;21397;-81
2023/10/08 12:10:40;;;;;;;20.92;3.27;;;;;;;16.87;100.00;100502.09;1479323;88;21323;-82
2023/10/08 12:13:07;;;;;;;6.90;2.08;;;;;;;17.01;100.00;100497.22;1478053;88;21412;-81
2023/10/08 12:15:38;;;;;;;1.98;1.05;;;;;;;16.79;100.00;100504.34;1464508;88;21582;-82
2023/10/08 12:18:11;;;;;;;3.75;1.55;;;;;;;16.62;100.00;100509.54;1450813;88;21375;-80
2023/10/08 12:20:38;;;;;;;4.78;0.98;;;;;;;16.52;100.00;100511.16;1478946;88;21383;-81
2023/10/08 12:23:10;;;;;;;1.22;1.00;;;;;;;16.32;100.00;100507.38;1471025;88;21826;-83
2023/10/08 12:25:37;;;;;;;2.87;1.03;;;;;;;16.38;100.00;100507.47;1462849;88;21611;-82
2023/10/08 12:28:05;;;;;;;2.10;1.40;;;;;;;16.55;100.00;100520.14;1472696;88;22241;-81
2023/10/08 12:30:40;;;;;;;3.37;1.47;;;;;;;16.73;100.00;100517.60;1467598;88;21412;-82
2023/10/08 12:33:01;;;;;;;3.83;1.50;;;;;;;16.74;100.00;100519.25;1470057;88;21403;-81
2023/10/08 12:35:29;;;;;;;4.07;1.73;;;;;;;16.53;100.00;100524.83;1471644;88;21419;-82
2023/10/08 12:37:56;;;;;;;2.17;1.20;;;;;;;16.37;100.00;100525.00;1475488;88;21726;-81
2023/10/08 12:40:22;;;;;;;2.47;1.50;;;;;;;16.22;100.00;100527.14;1471741;88;21390;-81